Nashville, NC (27856)

12:11 AM EST on November 24, 2014 (GMT -0500)
Nashville - Birchwood | Change Station
CLOSE
Current Station
Personal Weather Station
Location: Nashville, NC
Elevation: 223 ft
Nearby Weather Stations

Elev 223 ft 35.96 °N, 77.94 °W | Updated 8 seconds ago

Rain
Rain
63.9 °F
Feels Like 63.9 °F
N
0.0
Wind Variable Wind from ESE
Gusts 3.0 mph

Today
High -- | Low -- °F
--% Chance of Precip.
Yesterday
High -- | Low -- °F
Precip. -- in
6:57 AM 4:59 PM
Waxing Crescent, 4% visible
Pressure 29.82 in
Visibility 1.8 miles
Clouds Overcast 900 ft
Dew Point 63 °F
Humidity 97%
Rainfall 0.00 in
Snow Depth Not available.
UV 0 out of 12
Pollen .30 out of 12
Air Quality Not available.
Flu Activity Not available.
SPECI KRWI 240458Z AUTO 17012G17KT 1 3/4SM +RA BR OVC009 18/18 A2982 RMK AO2 PRESRR P0009 T01830183

More Conditions Fewer Conditions

Pressure 29.82 in
Visibility 1.8 miles
Clouds Overcast 900 ft
Dew Point 63 °F
Humidity 97%
Rainfall 0.00 in
Snow Depth Not available.
UV 0 out of 12
Pollen .30 out of 12
Air Quality Not available.
Flu Activity Not available.
SPECI KRWI 240458Z AUTO 17012G17KT 1 3/4SM +RA BR OVC009 18/18 A2982 RMK AO2 PRESRR P0009 T01830183

More Conditions Fewer Conditions

10-Day Weather Forecast

Almanac

Astronomy

Nov. 24, 2014 Rise Set
Actual Time
Civil Twilight
Nautical Twilight
Astronomical Twilight
Moon
Length of Visible Light
Length of Day
Tomorrow will be .
, % of the Moon is Illuminated

Today's Extremes

State Highs State Lows

Community

WunderPhotos

Upload Photos

1,773,269 photos uploaded!

WunderBlogs® & News

Nearby

Air Quality

  Air Quality AQ Index Pollutant
Not available.

Snow Depth

Station Depth Elevation

Earthquake Activity

City Distance Mag. Time & Date
Minimum magnitude displayed is 2.5.

Coastal Water Temperatures

Place Temperature

Nearby Weather Stations